createdAt,value
2023-05-21T00:02:10.349Z,15.53
2023-05-21T00:04:40.854Z,15.49
2023-05-21T00:07:11.360Z,15.47
2023-05-21T00:09:41.517Z,15.42
2023-05-21T00:12:12.124Z,15.46
2023-05-21T00:14:44.571Z,15.53
2023-05-21T00:17:14.445Z,15.48
2023-05-21T00:19:44.590Z,15.45
2023-05-21T00:22:14.883Z,15.42
2023-05-21T00:24:46.157Z,15.35
2023-05-21T00:27:18.095Z,15.40
2023-05-21T00:29:50.553Z,15.45
2023-05-21T00:32:20.622Z,15.44
2023-05-21T00:34:51.392Z,15.46
2023-05-21T00:37:22.077Z,15.43
2023-05-21T00:39:51.948Z,15.42
2023-05-21T00:42:27.595Z,15.47
2023-05-21T00:45:08.740Z,15.46
2023-05-21T00:47:41.249Z,15.41
2023-05-21T00:50:15.789Z,15.37
2023-05-21T00:52:49.315Z,15.35
2023-05-21T00:55:22.307Z,15.31
2023-05-21T00:57:52.469Z,15.33
2023-05-21T01:00:30.397Z,15.35
2023-05-21T01:03:03.691Z,15.32
2023-05-21T01:05:36.204Z,15.34
2023-05-21T01:08:07.889Z,15.37
2023-05-21T01:10:37.821Z,15.36
2023-05-21T01:13:15.265Z,15.43
2023-05-21T01:15:48.521Z,15.41
2023-05-21T01:18:20.931Z,15.31
2023-05-21T01:20:50.983Z,15.28
2023-05-21T01:23:23.876Z,15.28
2023-05-21T01:25:53.879Z,15.29
2023-05-21T01:28:23.800Z,15.32
2023-05-21T01:30:53.946Z,15.32
2023-05-21T01:33:32.609Z,15.27
2023-05-21T01:36:10.510Z,15.17
2023-05-21T01:38:46.618Z,15.20
2023-05-21T01:41:21.312Z,15.11
2023-05-21T01:43:54.365Z,15.04
2023-05-21T01:46:30.462Z,14.99
2023-05-21T01:49:02.668Z,14.99
2023-05-21T01:51:34.262Z,14.90
2023-05-21T01:54:07.395Z,14.91
2023-05-21T01:56:37.315Z,14.95
2023-05-21T01:59:07.190Z,14.91
2023-05-21T02:01:38.010Z,14.86
2023-05-21T02:04:08.480Z,14.83
2023-05-21T02:06:39.779Z,14.78
2023-05-21T02:09:12.377Z,14.85
2023-05-21T02:11:42.217Z,14.92
2023-05-21T02:14:16.553Z,14.95
2023-05-21T02:16:46.474Z,14.91
2023-05-21T02:19:16.547Z,14.86
2023-05-21T02:21:46.431Z,14.79
2023-05-21T02:24:18.877Z,14.77
2023-05-21T02:26:50.652Z,14.78
2023-05-21T02:29:20.486Z,14.74
2023-05-21T02:31:51.186Z,14.67
2023-05-21T02:34:27.873Z,14.55
2023-05-21T02:36:59.054Z,14.66
2023-05-21T02:39:31.469Z,14.68
2023-05-21T02:42:01.351Z,14.63
2023-05-21T02:44:31.251Z,14.70
2023-05-21T02:47:01.216Z,14.71
2023-05-21T02:49:31.067Z,14.65
2023-05-21T02:52:00.926Z,14.58
2023-05-21T02:54:36.424Z,14.61
2023-05-21T02:57:06.533Z,14.66
2023-05-21T02:59:36.408Z,14.60
2023-05-21T03:02:06.309Z,14.58
2023-05-21T03:04:39.365Z,14.61
2023-05-21T03:07:10.396Z,14.60
2023-05-21T03:09:42.968Z,14.64
2023-05-21T03:12:15.846Z,14.62
2023-05-21T03:14:46.665Z,14.58
2023-05-21T03:17:17.318Z,14.54
2023-05-21T03:19:49.365Z,14.52
2023-05-21T03:22:21.055Z,14.47
2023-05-21T03:24:53.627Z,14.48
2023-05-21T03:27:23.454Z,14.50
2023-05-21T03:29:55.287Z,14.48
2023-05-21T03:32:25.259Z,14.44
2023-05-21T03:34:55.162Z,14.42
2023-05-21T03:37:25.017Z,14.40
2023-05-21T03:39:57.450Z,14.40
2023-05-21T03:42:27.288Z,14.40
2023-05-21T03:44:57.937Z,14.41
2023-05-21T03:47:27.922Z,14.40
2023-05-21T03:49:57.870Z,14.45
2023-05-21T03:52:27.742Z,14.51
2023-05-21T03:55:00.206Z,14.51
2023-05-21T03:57:34.509Z,14.46
2023-05-21T04:00:04.542Z,14.41
2023-05-21T04:02:34.995Z,14.45
2023-05-21T04:05:05.324Z,14.46
2023-05-21T04:07:35.217Z,14.52
2023-05-21T04:10:08.940Z,14.50
2023-05-21T04:12:38.830Z,14.44
2023-05-21T04:15:10.330Z,14.47
2023-05-21T04:17:41.443Z,14.44
2023-05-21T04:20:12.216Z,14.39
2023-05-21T04:22:42.257Z,14.37
2023-05-21T04:25:14.870Z,14.38
2023-05-21T04:27:47.932Z,14.38
2023-05-21T04:30:20.275Z,14.31
2023-05-21T04:32:53.248Z,14.31
2023-05-21T04:35:23.634Z,14.36
2023-05-21T04:37:55.448Z,14.37
2023-05-21T04:40:28.258Z,14.31
2023-05-21T04:42:59.184Z,14.18
2023-05-21T04:45:29.673Z,14.13
2023-05-21T04:48:00.840Z,14.19
2023-05-21T04:50:31.009Z,14.23
2023-05-21T04:53:03.387Z,14.19
2023-05-21T04:55:39.831Z,14.26
2023-05-21T04:58:11.237Z,14.27
2023-05-21T05:00:42.476Z,14.36
2023-05-21T05:03:12.675Z,14.33
2023-05-21T05:05:42.845Z,14.34
2023-05-21T05:08:14.724Z,14.30
2023-05-21T05:10:48.326Z,14.18
2023-05-21T05:13:18.165Z,14.07
2023-05-21T05:15:50.206Z,14.09
2023-05-21T05:18:20.920Z,14.14
2023-05-21T05:20:50.775Z,14.24
2023-05-21T05:23:20.789Z,14.31
2023-05-21T05:25:53.468Z,14.34
2023-05-21T05:28:25.818Z,14.37
2023-05-21T05:30:55.828Z,14.36
2023-05-21T05:33:25.698Z,14.35
2023-05-21T05:35:55.607Z,14.45
2023-05-21T05:38:25.528Z,14.65
2023-05-21T05:40:58.083Z,14.77
2023-05-21T05:43:31.990Z,14.69
2023-05-21T05:46:01.952Z,14.62
2023-05-21T05:48:31.896Z,14.57
2023-05-21T05:51:01.821Z,14.56
2023-05-21T05:53:33.076Z,14.80
2023-05-21T05:56:05.558Z,14.87
2023-05-21T05:58:35.761Z,15.01
2023-05-21T06:01:05.611Z,15.12
2023-05-21T06:03:36.405Z,15.30
2023-05-21T06:06:06.807Z,15.47
2023-05-21T06:08:38.243Z,15.49
2023-05-21T06:11:11.208Z,15.51
2023-05-21T06:13:41.188Z,15.51
2023-05-21T06:16:11.768Z,15.56
2023-05-21T06:18:44.875Z,15.57
2023-05-21T06:21:14.755Z,15.57
2023-05-21T06:23:48.387Z,15.54
2023-05-21T06:26:22.208Z,15.59
2023-05-21T06:28:52.705Z,15.60
2023-05-21T06:31:28.955Z,15.56
2023-05-21T06:34:05.837Z,15.62
2023-05-21T06:36:37.621Z,15.80
2023-05-21T06:39:07.489Z,15.89
2023-05-21T06:41:47.658Z,15.81
2023-05-21T06:44:20.222Z,15.77
2023-05-21T06:46:50.845Z,15.87
2023-05-21T06:49:23.549Z,16.00
2023-05-21T06:51:54.551Z,16.17
2023-05-21T06:54:27.075Z,16.32
2023-05-21T06:57:00.412Z,16.44
2023-05-21T06:59:30.310Z,16.46
2023-05-21T07:02:04.498Z,16.53
2023-05-21T07:04:40.992Z,16.63
2023-05-21T07:07:10.925Z,16.70
2023-05-21T07:09:43.230Z,16.74
2023-05-21T07:12:22.313Z,16.85
2023-05-21T07:14:59.346Z,16.98
2023-05-21T07:17:29.363Z,17.00
2023-05-21T07:19:59.356Z,17.01
2023-05-21T07:22:29.238Z,17.06
2023-05-21T07:24:59.144Z,17.07
2023-05-21T07:27:33.905Z,17.13
2023-05-21T07:30:03.766Z,16.99
2023-05-21T07:32:33.606Z,16.94
2023-05-21T07:35:04.869Z,16.84
2023-05-21T07:37:34.748Z,16.86
2023-05-21T07:40:04.818Z,16.98
2023-05-21T07:42:38.184Z,16.90
2023-05-21T07:45:09.654Z,16.83
2023-05-21T07:47:41.115Z,16.85
2023-05-21T07:50:11.712Z,16.94
2023-05-21T07:52:41.623Z,17.13
2023-05-21T07:55:15.876Z,17.28
2023-05-21T08:00:31.917Z,17.20
2023-05-21T08:03:08.002Z,17.14
2023-05-21T08:05:43.027Z,17.14
2023-05-21T08:08:15.638Z,17.05
2023-05-21T08:10:48.377Z,17.05
2023-05-21T08:13:31.200Z,17.04
2023-05-21T08:16:13.233Z,16.91
2023-05-21T08:18:43.248Z,16.86
2023-05-21T08:21:13.373Z,16.84
2023-05-21T08:23:48.210Z,16.79
2023-05-21T08:26:19.086Z,16.75
2023-05-21T08:28:51.837Z,16.74
2023-05-21T08:31:39.096Z,16.75
2023-05-21T08:34:09.741Z,16.77
2023-05-21T08:36:39.568Z,16.82
2023-05-21T08:39:11.817Z,16.88
2023-05-21T08:41:49.851Z,17.02
2023-05-21T08:44:40.172Z,17.03
2023-05-21T08:47:18.887Z,17.06
2023-05-21T08:49:53.575Z,17.14
2023-05-21T08:52:24.155Z,17.18
2023-05-21T08:54:59.993Z,17.21
2023-05-21T08:57:30.496Z,17.02
2023-05-21T09:00:04.909Z,17.03
2023-05-21T09:02:40.802Z,17.15
2023-05-21T09:05:14.036Z,17.25
2023-05-21T09:07:52.384Z,17.33
2023-05-21T09:10:29.814Z,17.40
2023-05-21T09:12:59.829Z,17.34
2023-05-21T09:15:33.811Z,17.32
2023-05-21T09:18:03.827Z,17.43
2023-05-21T09:20:33.722Z,17.43
2023-05-21T09:23:06.956Z,17.29
2023-05-21T09:25:40.617Z,17.14
2023-05-21T09:28:14.932Z,17.28
2023-05-21T09:30:53.967Z,17.42
2023-05-21T09:33:32.972Z,17.36
2023-05-21T09:36:02.937Z,17.28
2023-05-21T09:38:32.876Z,17.33
2023-05-21T09:41:07.349Z,17.38
2023-05-21T09:43:40.326Z,17.36
2023-05-21T09:46:13.027Z,17.21
2023-05-21T09:48:44.803Z,17.10
2023-05-21T09:51:16.578Z,17.03
2023-05-21T09:53:50.274Z,17.00
2023-05-21T09:56:25.466Z,16.95
2023-05-21T09:58:57.455Z,16.97
2023-05-21T10:01:30.807Z,16.97
2023-05-21T10:04:03.030Z,16.95
2023-05-21T10:06:35.031Z,16.89
2023-05-21T10:09:10.785Z,16.97
2023-05-21T10:11:42.808Z,17.03
2023-05-21T10:14:17.965Z,17.03
2023-05-21T10:16:51.275Z,16.97
2023-05-21T10:19:22.681Z,16.88
2023-05-21T10:21:54.723Z,16.96
2023-05-21T10:24:26.984Z,16.93
2023-05-21T10:26:57.122Z,16.97
2023-05-21T10:29:28.106Z,17.04
2023-05-21T10:32:01.947Z,17.05
2023-05-21T10:34:34.194Z,17.02
2023-05-21T10:37:05.343Z,16.84
2023-05-21T10:39:36.674Z,16.82
2023-05-21T10:42:19.578Z,17.12
2023-05-21T10:45:08.740Z,17.22
2023-05-21T10:48:00.173Z,17.35
2023-05-21T10:50:55.749Z,17.36
2023-05-21T10:53:34.300Z,17.43
2023-05-21T10:56:17.257Z,17.28
2023-05-21T10:59:12.579Z,17.26
2023-05-21T11:01:45.411Z,17.14
2023-05-21T11:04:18.147Z,17.21
2023-05-21T11:06:51.344Z,17.20
2023-05-21T11:09:23.553Z,17.28
2023-05-21T11:11:54.691Z,17.32
2023-05-21T11:14:39.814Z,17.42
2023-05-21T11:17:18.866Z,17.43
2023-05-21T11:19:52.464Z,17.47
2023-05-21T11:22:26.654Z,17.47
2023-05-21T11:24:57.355Z,17.44
2023-05-21T11:27:36.419Z,17.45
2023-05-21T11:30:11.469Z,17.45
2023-05-21T11:32:42.536Z,17.42
2023-05-21T11:35:17.192Z,17.45
2023-05-21T11:37:52.730Z,17.42
2023-05-21T11:40:26.336Z,17.41
2023-05-21T11:42:58.470Z,17.45
2023-05-21T11:45:34.225Z,17.56
2023-05-21T11:48:04.573Z,17.64
2023-05-21T11:50:37.809Z,17.70
2023-05-21T11:53:09.310Z,17.83
2023-05-21T11:55:43.682Z,17.76
2023-05-21T11:58:19.465Z,17.73
2023-05-21T12:00:49.375Z,17.49
2023-05-21T12:03:23.871Z,17.53
2023-05-21T12:05:56.443Z,17.51
2023-05-21T12:08:27.803Z,17.50
2023-05-21T12:11:02.082Z,17.37
2023-05-21T12:13:35.386Z,17.25
2023-05-21T12:16:06.977Z,17.38
2023-05-21T12:18:37.160Z,17.30
2023-05-21T12:21:11.725Z,17.16
2023-05-21T12:23:43.051Z,17.07
2023-05-21T12:26:13.946Z,17.03
2023-05-21T12:28:44.090Z,17.17
2023-05-21T12:31:18.099Z,17.17
2023-05-21T12:33:49.451Z,17.23
2023-05-21T12:36:30.367Z,17.23
2023-05-21T12:39:00.830Z,17.17
2023-05-21T12:41:32.546Z,17.15
2023-05-21T12:44:04.258Z,17.14
2023-05-21T12:46:34.266Z,17.24
2023-05-21T12:49:04.453Z,17.27
2023-05-21T12:51:43.604Z,17.44
2023-05-21T12:54:16.610Z,17.53
2023-05-21T12:56:49.718Z,17.45
2023-05-21T12:59:19.571Z,17.42
2023-05-21T13:01:50.889Z,17.47
2023-05-21T13:04:22.643Z,17.64
2023-05-21T13:06:55.191Z,17.59
2023-05-21T13:09:25.034Z,17.61
2023-05-21T13:11:54.907Z,17.59
2023-05-21T13:14:24.736Z,17.62
2023-05-21T13:16:54.659Z,17.56
2023-05-21T13:19:24.633Z,17.60
2023-05-21T13:21:57.158Z,17.72
2023-05-21T13:24:27.065Z,17.72
2023-05-21T13:26:56.966Z,17.78
2023-05-21T13:29:26.899Z,17.70
2023-05-21T13:31:56.756Z,17.55
2023-05-21T13:34:26.594Z,17.50
2023-05-21T13:36:59.052Z,17.45
2023-05-21T13:39:28.958Z,17.60
2023-05-21T13:41:59.465Z,17.66
2023-05-21T13:44:33.614Z,17.69
2023-05-21T13:47:03.617Z,17.72
2023-05-21T13:49:33.569Z,17.70
2023-05-21T13:52:06.591Z,17.72
2023-05-21T13:54:36.630Z,17.82
2023-05-21T13:57:06.797Z,17.98
2023-05-21T13:59:36.715Z,18.13
2023-05-21T14:02:07.038Z,18.12
2023-05-21T14:04:39.754Z,18.13
2023-05-21T14:07:14.233Z,18.27
2023-05-21T14:09:44.275Z,18.31
2023-05-21T14:12:14.117Z,18.37
2023-05-21T14:14:44.446Z,18.46
2023-05-21T14:17:14.370Z,18.59
2023-05-21T14:19:44.223Z,18.55
2023-05-21T14:22:16.740Z,18.51
2023-05-21T14:24:47.924Z,18.60
2023-05-21T14:27:18.667Z,18.67
2023-05-21T14:29:48.533Z,18.74
2023-05-21T14:32:19.503Z,18.62
2023-05-21T14:34:49.438Z,18.68
2023-05-21T14:37:22.664Z,18.73
2023-05-21T14:39:52.516Z,18.91
2023-05-21T14:42:22.761Z,18.90
2023-05-21T14:44:52.669Z,18.93
2023-05-21T14:47:22.553Z,18.93
2023-05-21T14:49:52.420Z,18.97
2023-05-21T14:52:24.903Z,19.05
2023-05-21T14:54:54.758Z,19.02
2023-05-21T14:57:24.608Z,19.13
2023-05-21T14:59:54.545Z,19.17
2023-05-21T15:02:25.026Z,19.20
2023-05-21T15:04:56.580Z,19.21
2023-05-21T15:07:29.130Z,19.24
2023-05-21T15:09:58.930Z,19.19
2023-05-21T15:12:28.770Z,19.32
2023-05-21T15:14:58.614Z,19.48
2023-05-21T15:17:28.482Z,19.59
2023-05-21T15:19:58.557Z,19.61
2023-05-21T15:22:31.036Z,19.60
2023-05-21T15:25:00.876Z,19.47
2023-05-21T15:27:31.746Z,19.48
2023-05-21T15:30:02.093Z,19.48
2023-05-21T15:32:32.121Z,19.43
2023-05-21T15:35:02.052Z,19.36
2023-05-21T15:37:34.723Z,19.38
2023-05-21T15:40:04.858Z,19.36
2023-05-21T15:42:36.286Z,19.48
2023-05-21T15:45:11.306Z,19.61
2023-05-21T15:47:42.929Z,19.75
2023-05-21T15:50:14.028Z,19.80
2023-05-21T15:52:46.901Z,19.89
2023-05-21T15:55:16.864Z,19.91
2023-05-21T15:57:46.722Z,20.00
2023-05-21T16:00:17.434Z,19.97
2023-05-21T16:02:47.308Z,19.99
2023-05-21T16:05:17.191Z,19.88
2023-05-21T16:07:50.846Z,19.91
2023-05-21T16:10:20.865Z,20.02
2023-05-21T16:12:50.717Z,20.07
2023-05-21T16:15:20.567Z,20.05
2023-05-21T16:17:50.485Z,20.01
2023-05-21T16:20:22.778Z,20.07
2023-05-21T16:22:55.221Z,20.16
2023-05-21T16:25:25.040Z,20.20
2023-05-21T16:27:54.913Z,20.17
2023-05-21T16:30:27.900Z,20.32
2023-05-21T16:32:57.899Z,20.43
2023-05-21T16:35:27.820Z,20.58
2023-05-21T16:38:00.307Z,20.64
2023-05-21T16:40:32.094Z,20.62
2023-05-21T16:43:02.611Z,20.63
2023-05-21T16:45:41.688Z,20.62
2023-05-21T16:48:12.116Z,20.73
2023-05-21T16:50:42.455Z,20.79
2023-05-21T16:53:15.117Z,20.85
2023-05-21T16:55:45.244Z,20.95
2023-05-21T16:58:15.677Z,21.03
2023-05-21T17:00:47.143Z,21.04
2023-05-21T17:03:17.238Z,21.13
2023-05-21T17:05:47.153Z,21.22
2023-05-21T17:08:19.671Z,21.27
2023-05-21T17:10:49.683Z,21.29
2023-05-21T17:13:22.525Z,21.26
2023-05-21T17:15:53.826Z,21.27
2023-05-21T17:18:23.647Z,21.36
2023-05-21T17:20:55.832Z,21.44
2023-05-21T17:23:28.269Z,21.51
2023-05-21T17:25:58.206Z,21.50
2023-05-21T17:28:28.084Z,21.54
2023-05-21T17:30:57.996Z,21.54
2023-05-21T17:33:28.348Z,21.54
2023-05-21T17:35:58.258Z,21.51
2023-05-21T17:38:30.766Z,21.51
2023-05-21T17:41:01.114Z,21.53
2023-05-21T17:43:33.660Z,21.55
2023-05-21T17:46:03.506Z,21.56
2023-05-21T17:48:33.385Z,21.51
2023-05-21T17:51:03.258Z,21.46
2023-05-21T17:53:35.736Z,21.36
2023-05-21T17:56:05.819Z,21.31
2023-05-21T17:58:35.687Z,21.23
2023-05-21T18:01:05.748Z,21.25
2023-05-21T18:03:38.032Z,21.27
2023-05-21T18:06:09.636Z,21.24
2023-05-21T18:08:42.288Z,21.21
2023-05-21T18:11:12.150Z,21.23
2023-05-21T18:13:42.265Z,21.13
2023-05-21T18:16:12.254Z,21.04
2023-05-21T18:18:42.163Z,21.01
2023-05-21T18:21:12.159Z,20.91
2023-05-21T18:23:44.630Z,20.79
2023-05-21T18:26:14.459Z,20.71
2023-05-21T18:28:46.395Z,20.63
2023-05-21T18:31:17.434Z,20.54
2023-05-21T18:33:47.352Z,20.39
2023-05-21T18:36:17.454Z,20.32
2023-05-21T18:38:50.391Z,20.19
2023-05-21T18:41:20.203Z,20.09
2023-05-21T18:43:50.079Z,20.01
2023-05-21T18:46:20.148Z,19.93
2023-05-21T18:48:50.210Z,19.98
2023-05-21T18:51:20.209Z,19.94
2023-05-21T18:53:52.669Z,19.96
2023-05-21T18:56:22.507Z,19.92
2023-05-21T18:58:52.381Z,19.80
2023-05-21T19:01:22.327Z,19.71
2023-05-21T19:03:52.938Z,19.67
2023-05-21T19:06:25.736Z,19.64
2023-05-21T19:08:58.233Z,19.71
2023-05-21T19:11:31.195Z,19.64
2023-05-21T19:14:01.966Z,19.59
2023-05-21T19:16:31.837Z,19.57
2023-05-21T19:19:02.273Z,19.50
2023-05-21T19:21:32.587Z,19.38
2023-05-21T19:24:05.955Z,19.35
2023-05-21T19:26:37.133Z,19.34
2023-05-21T19:29:07.022Z,19.26
2023-05-21T19:31:37.490Z,19.20
2023-05-21T19:34:11.034Z,19.08
2023-05-21T19:36:52.275Z,19.08
2023-05-21T19:39:25.188Z,19.03
2023-05-21T19:41:55.727Z,18.88
2023-05-21T19:44:25.591Z,18.83
2023-05-21T19:46:56.163Z,18.80
2023-05-21T19:49:26.033Z,18.73
2023-05-21T19:51:56.354Z,18.69
2023-05-21T19:54:28.874Z,18.63
2023-05-21T19:56:58.840Z,18.51
2023-05-21T19:59:28.854Z,18.50
2023-05-21T20:01:58.755Z,18.38
2023-05-21T20:04:31.733Z,18.41
2023-05-21T20:07:01.563Z,18.42
2023-05-21T20:09:34.062Z,18.38
2023-05-21T20:12:04.258Z,18.37
2023-05-21T20:14:36.960Z,18.41
2023-05-21T20:17:08.078Z,18.41
2023-05-21T20:19:38.811Z,18.32
2023-05-21T20:22:08.959Z,18.34
2023-05-21T20:24:41.452Z,18.37
2023-05-21T20:27:15.893Z,18.40
2023-05-21T20:29:46.074Z,18.35
2023-05-21T20:32:16.233Z,18.34
2023-05-21T20:35:02.206Z,18.38
2023-05-21T20:37:36.266Z,18.40
2023-05-21T20:40:10.855Z,18.40
2023-05-21T20:42:45.207Z,18.39
2023-05-21T20:45:16.122Z,18.36
2023-05-21T20:47:49.571Z,18.38
2023-05-21T20:50:21.877Z,18.39
2023-05-21T20:52:52.201Z,18.44
2023-05-21T20:55:24.636Z,18.46
2023-05-21T20:57:54.490Z,18.44
2023-05-21T21:00:24.844Z,18.48
2023-05-21T21:02:56.424Z,18.52
2023-05-21T21:05:26.416Z,18.51
2023-05-21T21:07:56.427Z,18.59
2023-05-21T21:10:28.900Z,18.53
2023-05-21T21:12:58.797Z,18.51
2023-05-21T21:15:28.651Z,18.49
2023-05-21T21:17:58.692Z,18.46
2023-05-21T21:20:28.553Z,18.45
2023-05-21T21:22:58.426Z,18.44
2023-05-21T21:25:30.901Z,18.45
2023-05-21T21:28:00.753Z,18.43
2023-05-21T21:30:30.604Z,18.43
2023-05-21T21:33:00.671Z,18.41
2023-05-21T21:35:30.603Z,18.40
2023-05-21T21:38:05.160Z,18.43
2023-05-21T22:43:47.992Z,18.01
2023-05-21T22:46:19.468Z,18.00
2023-05-21T22:48:49.467Z,17.99
2023-05-21T22:51:19.437Z,17.94
2023-05-21T22:53:49.314Z,17.93
2023-05-21T22:56:19.988Z,17.90
2023-05-21T22:58:52.417Z,17.83
2023-05-21T23:01:22.339Z,17.82
2023-05-21T23:03:52.235Z,17.83
2023-05-21T23:06:22.868Z,17.78
2023-05-21T23:08:52.679Z,17.78
2023-05-21T23:11:22.555Z,17.79
2023-05-21T23:13:54.996Z,17.74
2023-05-21T23:16:32.456Z,17.70
2023-05-21T23:19:03.655Z,17.78
2023-05-21T23:21:42.100Z,17.76
2023-05-21T23:24:14.754Z,17.79
2023-05-21T23:26:47.134Z,17.82
